sensor_id;sensor_type;location;lat;lon;timestamp;pressure;altitude;pressure_sealevel;temperature;humidity
71770;BME280;59605;52.122;5.420;2022-10-17T00:00:27;101727.00;;;20.85;61.61
71770;BME280;59605;52.122;5.420;2022-10-17T00:02:54;101727.94;;;20.84;61.49
71770;BME280;59605;52.122;5.420;2022-10-17T00:05:21;101732.25;;;20.85;61.60
71770;BME280;59605;52.122;5.420;2022-10-17T00:07:47;101736.59;;;20.85;61.44
71770;BME280;59605;52.122;5.420;2022-10-17T00:10:14;101737.56;;;20.84;61.28
71770;BME280;59605;52.122;5.420;2022-10-17T00:12:40;101731.47;;;20.83;61.37
71770;BME280;59605;52.122;5.420;2022-10-17T00:15:07;101729.72;;;20.84;61.43
71770;BME280;59605;52.122;5.420;2022-10-17T00:17:34;101721.13;;;20.82;61.28
71770;BME280;59605;52.122;5.420;2022-10-17T00:20:00;101721.03;;;20.83;61.37
71770;BME280;59605;52.122;5.420;2022-10-17T00:22:27;101713.19;;;20.83;61.25
71770;BME280;59605;52.122;5.420;2022-10-17T00:24:53;101719.38;;;20.82;61.38
71770;BME280;59605;52.122;5.420;2022-10-17T00:27:19;101714.97;;;20.83;61.47
71770;BME280;59605;52.122;5.420;2022-10-17T00:29:49;101712.47;;;20.81;61.38
71770;BME280;59605;52.122;5.420;2022-10-17T00:32:17;101698.47;;;20.82;61.39
71770;BME280;59605;52.122;5.420;2022-10-17T00:34:43;101699.41;;;20.81;61.18
71770;BME280;59605;52.122;5.420;2022-10-17T00:37:10;101709.84;;;20.81;61.38
71770;BME280;59605;52.122;5.420;2022-10-17T00:39:37;101703.78;;;20.81;61.28
71770;BME280;59605;52.122;5.420;2022-10-17T00:42:04;101702.94;;;20.80;61.52
71770;BME280;59605;52.122;5.420;2022-10-17T00:47:01;101705.56;;;20.80;61.27
71770;BME280;59605;52.122;5.420;2022-10-17T00:49:32;101694.38;;;20.78;61.16
71770;BME280;59605;52.122;5.420;2022-10-17T00:52:02;101691.78;;;20.78;61.43
71770;BME280;59605;52.122;5.420;2022-10-17T00:54:42;101690.00;;;20.79;61.20
71770;BME280;59605;52.122;5.420;2022-10-17T00:57:10;101700.44;;;20.79;61.34
71770;BME280;59605;52.122;5.420;2022-10-17T00:59:39;101692.59;;;20.79;61.20
71770;BME280;59605;52.122;5.420;2022-10-17T01:02:13;101691.78;;;20.78;61.50
71770;BME280;59605;52.122;5.420;2022-10-17T01:04:43;101683.09;;;20.78;61.47
71770;BME280;59605;52.122;5.420;2022-10-17T01:07:10;101690.09;;;20.77;61.42
71770;BME280;59605;52.122;5.420;2022-10-17T01:09:37;101684.88;;;20.77;61.26
71770;BME280;59605;52.122;5.420;2022-10-17T01:12:31;101684.03;;;20.77;61.29
71770;BME280;59605;52.122;5.420;2022-10-17T01:15:18;101677.97;;;20.76;61.21
71770;BME280;59605;52.122;5.420;2022-10-17T01:18:23;101672.72;;;20.76;61.41
71770;BME280;59605;52.122;5.420;2022-10-17T01:21:06;101677.13;;;20.75;61.25
71770;BME280;59605;52.122;5.420;2022-10-17T01:26:39;101676.31;;;20.75;61.34
71770;BME280;59605;52.122;5.420;2022-10-17T01:34:44;101668.56;;;20.73;61.44
71770;BME280;59605;52.122;5.420;2022-10-17T01:37:19;101670.22;;;20.74;61.02
71770;BME280;59605;52.122;5.420;2022-10-17T01:42:32;101661.66;;;20.72;61.48
71770;BME280;59605;52.122;5.420;2022-10-17T01:47:43;101665.97;;;20.73;61.30
71770;BME280;59605;52.122;5.420;2022-10-17T01:50:16;101655.59;;;20.72;61.24
71770;BME280;59605;52.122;5.420;2022-10-17T01:52:49;101656.56;;;20.71;61.21
71770;BME280;59605;52.122;5.420;2022-10-17T01:55:26;101653.94;;;20.71;61.47
71770;BME280;59605;52.122;5.420;2022-10-17T01:58:00;101654.75;;;20.71;61.25
71770;BME280;59605;52.122;5.420;2022-10-17T02:00:29;101648.72;;;20.71;61.11
71770;BME280;59605;52.122;5.420;2022-10-17T02:03:01;101642.63;;;20.70;61.39
71770;BME280;59605;52.122;5.420;2022-10-17T02:05:36;101637.41;;;20.70;61.01
71770;BME280;59605;52.122;5.420;2022-10-17T02:08:04;101626.13;;;20.70;61.00
71770;BME280;59605;52.122;5.420;2022-10-17T02:16:47;101614.84;;;20.69;61.22
71770;BME280;59605;52.122;5.420;2022-10-17T02:19:28;101614.00;;;20.69;61.40
71770;BME280;59605;52.122;5.420;2022-10-17T02:22:24;101617.47;;;20.69;61.36
71770;BME280;59605;52.122;5.420;2022-10-17T02:25:22;101613.19;;;20.68;61.42
71770;BME280;59605;52.122;5.420;2022-10-17T02:32:55;101614.97;;;20.68;61.40
71770;BME280;59605;52.122;5.420;2022-10-17T02:35:29;101608.06;;;20.67;61.51
71770;BME280;59605;52.122;5.420;2022-10-17T02:37:57;101613.28;;;20.67;61.14
71770;BME280;59605;52.122;5.420;2022-10-17T02:40:25;101607.13;;;20.68;61.06
71770;BME280;59605;52.122;5.420;2022-10-17T02:42:55;101608.88;;;20.67;61.06
71770;BME280;59605;52.122;5.420;2022-10-17T02:45:23;101604.63;;;20.66;61.42
71770;BME280;59605;52.122;5.420;2022-10-17T02:47:56;101602.84;;;20.67;61.15
71770;BME280;59605;52.122;5.420;2022-10-17T02:50:35;101602.00;;;20.66;61.53
71770;BME280;59605;52.122;5.420;2022-10-17T02:53:13;101605.53;;;20.65;61.01
71770;BME280;59605;52.122;5.420;2022-10-17T02:55:46;101605.53;;;20.65;61.36
71770;BME280;59605;52.122;5.420;2022-10-17T02:58:18;101611.56;;;20.66;61.17
71770;BME280;59605;52.122;5.420;2022-10-17T03:00:46;101604.69;;;20.65;61.16
71770;BME280;59605;52.122;5.420;2022-10-17T03:03:25;101603.72;;;20.66;61.22
71770;BME280;59605;52.122;5.420;2022-10-17T03:05:52;101610.75;;;20.65;61.45
71770;BME280;59605;52.122;5.420;2022-10-17T03:08:19;101615.97;;;20.65;61.28
71770;BME280;59605;52.122;5.420;2022-10-17T03:10:46;101619.50;;;20.64;61.08
71770;BME280;59605;52.122;5.420;2022-10-17T03:13:13;101616.06;;;20.64;61.43
71770;BME280;59605;52.122;5.420;2022-10-17T03:15:40;101612.59;;;20.63;61.17
71770;BME280;59605;52.122;5.420;2022-10-17T03:18:06;101616.06;;;20.64;61.18
71770;BME280;59605;52.122;5.420;2022-10-17T03:20:33;101610.00;;;20.63;61.36
71770;BME280;59605;52.122;5.420;2022-10-17T03:22:59;101612.59;;;20.63;61.44
71770;BME280;59605;52.122;5.420;2022-10-17T03:25:26;101608.34;;;20.62;61.10
71770;BME280;59605;52.122;5.420;2022-10-17T03:27:52;101613.47;;;20.64;61.39
71770;BME280;59605;52.122;5.420;2022-10-17T03:30:19;101617.00;;;20.63;61.41
71770;BME280;59605;52.122;5.420;2022-10-17T03:32:45;101617.00;;;20.63;61.14
71770;BME280;59605;52.122;5.420;2022-10-17T03:35:12;101627.44;;;20.63;61.16
71770;BME280;59605;52.122;5.420;2022-10-17T03:37:40;101620.53;;;20.62;61.06
71770;BME280;59605;52.122;5.420;2022-10-17T03:40:07;101624.94;;;20.61;61.51
71770;BME280;59605;52.122;5.420;2022-10-17T03:42:33;101615.31;;;20.62;61.25
71770;BME280;59605;52.122;5.420;2022-10-17T03:44:59;101617.94;;;20.62;61.22
71770;BME280;59605;52.122;5.420;2022-10-17T03:47:27;101631.00;;;20.62;61.10
71770;BME280;59605;52.122;5.420;2022-10-17T03:49:54;101629.22;;;20.62;61.39
71770;BME280;59605;52.122;5.420;2022-10-17T03:52:20;101635.38;;;20.61;61.30
71770;BME280;59605;52.122;5.420;2022-10-17T03:54:48;101629.34;;;20.61;61.61
71770;BME280;59605;52.122;5.420;2022-10-17T03:57:16;101629.34;;;20.61;61.16
71770;BME280;59605;52.122;5.420;2022-10-17T03:59:42;101625.78;;;20.62;61.39
71770;BME280;59605;52.122;5.420;2022-10-17T04:02:09;101629.34;;;20.61;61.05
71770;BME280;59605;52.122;5.420;2022-10-17T04:04:35;101625.88;;;20.60;61.09
71770;BME280;59605;52.122;5.420;2022-10-17T04:07:02;101624.13;;;20.61;61.15
71770;BME280;59605;52.122;5.420;2022-10-17T04:09:28;101626.72;;;20.61;61.45
71770;BME280;59605;52.122;5.420;2022-10-17T04:11:54;101622.44;;;20.60;61.23
71770;BME280;59605;52.122;5.420;2022-10-17T04:14:21;101636.31;;;20.60;61.14
71770;BME280;59605;52.122;5.420;2022-10-17T04:16:47;101638.09;;;20.60;61.17
71770;BME280;59605;52.122;5.420;2022-10-17T04:19:14;101629.44;;;20.59;61.36
71770;BME280;59605;52.122;5.420;2022-10-17T04:21:40;101631.19;;;20.58;61.47
71770;BME280;59605;52.122;5.420;2022-10-17T04:24:09;101640.00;;;20.57;61.56
71770;BME280;59605;52.122;5.420;2022-10-17T04:26:35;101637.38;;;20.57;61.24
71770;BME280;59605;52.122;5.420;2022-10-17T04:29:02;101643.44;;;20.58;61.33
71770;BME280;59605;52.122;5.420;2022-10-17T04:31:28;101642.59;;;20.57;61.59
71770;BME280;59605;52.122;5.420;2022-10-17T04:33:55;101632.16;;;20.57;61.22
71770;BME280;59605;52.122;5.420;2022-10-17T04:36:21;101642.50;;;20.59;61.53
71770;BME280;59605;52.122;5.420;2022-10-17T04:38:48;101636.53;;;20.57;61.28
71770;BME280;59605;52.122;5.420;2022-10-17T04:41:16;101643.53;;;20.56;61.34
71770;BME280;59605;52.122;5.420;2022-10-17T04:43:43;101635.69;;;20.56;61.54
71770;BME280;59605;52.122;5.420;2022-10-17T04:46:16;101649.59;;;20.57;61.61
71770;BME280;59605;52.122;5.420;2022-10-17T04:48:42;101653.06;;;20.57;61.17
71770;BME280;59605;52.122;5.420;2022-10-17T04:51:12;101665.34;;;20.55;61.58
71770;BME280;59605;52.122;5.420;2022-10-17T04:53:40;101667.97;;;20.55;61.70
71770;BME280;59605;52.122;5.420;2022-10-17T04:56:09;101672.25;;;20.56;61.31
71770;BME280;59605;52.122;5.420;2022-10-17T04:58:36;101674.06;;;20.56;61.52
71770;BME280;59605;52.122;5.420;2022-10-17T05:01:07;101669.75;;;20.55;61.27
71770;BME280;59605;52.122;5.420;2022-10-17T05:03:34;101677.59;;;20.55;61.22
71770;BME280;59605;52.122;5.420;2022-10-17T05:06:12;101678.41;;;20.55;61.30
71770;BME280;59605;52.122;5.420;2022-10-17T05:08:39;101671.50;;;20.54;61.20
71770;BME280;59605;52.122;5.420;2022-10-17T05:11:15;101672.38;;;20.55;61.52
71770;BME280;59605;52.122;5.420;2022-10-17T05:13:42;101670.69;;;20.54;61.44
71770;BME280;59605;52.122;5.420;2022-10-17T05:16:08;101674.13;;;20.54;61.40
71770;BME280;59605;52.122;5.420;2022-10-17T05:18:36;101678.53;;;20.54;61.39
71770;BME280;59605;52.122;5.420;2022-10-17T05:21:02;101662.84;;;20.54;61.59
71770;BME280;59605;52.122;5.420;2022-10-17T05:23:29;101663.69;;;20.54;61.69
71770;BME280;59605;52.122;5.420;2022-10-17T05:25:56;101674.13;;;20.54;61.37
71770;BME280;59605;52.122;5.420;2022-10-17T05:28:22;101668.91;;;20.54;61.60
71770;BME280;59605;52.122;5.420;2022-10-17T05:30:49;101664.63;;;20.53;61.76
71770;BME280;59605;52.122;5.420;2022-10-17T05:33:15;101675.09;;;20.53;61.45
71770;BME280;59605;52.122;5.420;2022-10-17T05:35:42;101679.44;;;20.53;61.44
71770;BME280;59605;52.122;5.420;2022-10-17T05:38:08;101682.91;;;20.53;61.35
71770;BME280;59605;52.122;5.420;2022-10-17T05:40:34;101678.63;;;20.52;61.28
71770;BME280;59605;52.122;5.420;2022-10-17T05:43:01;101681.22;;;20.52;61.56
71770;BME280;59605;52.122;5.420;2022-10-17T05:45:27;101691.69;;;20.52;61.60
71770;BME280;59605;52.122;5.420;2022-10-17T05:47:53;101696.91;;;20.52;61.64
71770;BME280;59605;52.122;5.420;2022-10-17T05:50:20;101693.47;;;20.52;61.63
71770;BME280;59605;52.122;5.420;2022-10-17T05:52:47;101683.84;;;20.52;61.46
71770;BME280;59605;52.122;5.420;2022-10-17T05:55:17;101680.41;;;20.52;61.58
71770;BME280;59605;52.122;5.420;2022-10-17T05:57:43;101676.94;;;20.51;61.57
71770;BME280;59605;52.122;5.420;2022-10-17T06:00:10;101682.16;;;20.51;61.53
71770;BME280;59605;52.122;5.420;2022-10-17T06:02:37;101671.72;;;20.51;61.70
71770;BME280;59605;52.122;5.420;2022-10-17T06:05:03;101675.28;;;20.50;61.50
71770;BME280;59605;52.122;5.420;2022-10-17T06:07:30;101678.72;;;20.51;61.46
71770;BME280;59605;52.122;5.420;2022-10-17T06:09:56;101689.16;;;20.51;61.35
71770;BME280;59605;52.122;5.420;2022-10-17T06:12:24;101691.78;;;20.51;61.51
71770;BME280;59605;52.122;5.420;2022-10-17T06:14:50;101696.19;;;20.50;61.43
71770;BME280;59605;52.122;5.420;2022-10-17T06:17:16;101695.31;;;20.50;61.75
71770;BME280;59605;52.122;5.420;2022-10-17T06:19:43;101690.09;;;20.50;61.46
71770;BME280;59605;52.122;5.420;2022-10-17T06:22:10;101683.22;;;20.49;61.71
71770;BME280;59605;52.122;5.420;2022-10-17T06:24:36;101688.34;;;20.50;61.71
71770;BME280;59605;52.122;5.420;2022-10-17T06:27:03;101696.19;;;20.50;61.66
71770;BME280;59605;52.122;5.420;2022-10-17T06:29:36;101708.47;;;20.48;61.85
71770;BME280;59605;52.122;5.420;2022-10-17T06:32:02;101713.69;;;20.48;61.55
71770;BME280;59605;52.122;5.420;2022-10-17T06:34:28;101716.22;;;20.50;61.60
71770;BME280;59605;52.122;5.420;2022-10-17T06:36:55;101725.94;;;20.48;62.09
71770;BME280;59605;52.122;5.420;2022-10-17T06:39:21;101722.41;;;20.49;61.93
71770;BME280;59605;52.122;5.420;2022-10-17T06:41:48;101721.44;;;20.50;62.14
71770;BME280;59605;52.122;5.420;2022-10-17T06:44:14;101721.44;;;20.50;62.23
71770;BME280;59605;52.122;5.420;2022-10-17T06:46:41;101723.22;;;20.49;62.22
71770;BME280;59605;52.122;5.420;2022-10-17T06:49:08;101730.13;;;20.50;62.26
71770;BME280;59605;52.122;5.420;2022-10-17T06:51:36;101735.34;;;20.50;62.44
71770;BME280;59605;52.122;5.420;2022-10-17T06:54:03;101739.72;;;20.50;62.39
71770;BME280;59605;52.122;5.420;2022-10-17T06:56:29;101746.72;;;20.49;62.43
71770;BME280;59605;52.122;5.420;2022-10-17T06:58:56;101753.63;;;20.50;62.44
71770;BME280;59605;52.122;5.420;2022-10-17T07:01:22;101755.38;;;20.50;62.67
71770;BME280;59605;52.122;5.420;2022-10-17T07:03:48;101751.13;;;20.49;62.85
71770;BME280;59605;52.122;5.420;2022-10-17T07:06:15;101758.00;;;20.50;62.80
71770;BME280;59605;52.122;5.420;2022-10-17T07:08:43;101756.34;;;20.49;62.87
71770;BME280;59605;52.122;5.420;2022-10-17T07:11:16;101757.16;;;20.49;63.28
71770;BME280;59605;52.122;5.420;2022-10-17T07:13:43;101763.31;;;20.48;63.37
71770;BME280;59605;52.122;5.420;2022-10-17T07:16:09;101758.00;;;20.50;63.12
71770;BME280;59605;52.122;5.420;2022-10-17T07:18:36;101766.69;;;20.50;63.71
71770;BME280;59605;52.122;5.420;2022-10-17T07:21:03;101757.91;;;20.51;63.70
71770;BME280;59605;52.122;5.420;2022-10-17T07:23:30;101775.34;;;20.51;63.64
71770;BME280;59605;52.122;5.420;2022-10-17T07:26:00;101770.13;;;20.51;63.87
71770;BME280;59605;52.122;5.420;2022-10-17T07:28:27;101765.72;;;20.51;63.49
71770;BME280;59605;52.122;5.420;2022-10-17T07:30:54;101764.06;;;20.50;63.77
71770;BME280;59605;52.122;5.420;2022-10-17T07:33:20;101758.84;;;20.50;63.83
71770;BME280;59605;52.122;5.420;2022-10-17T07:35:47;101755.28;;;20.51;63.72
71770;BME280;59605;52.122;5.420;2022-10-17T07:38:13;101770.13;;;20.51;64.07
71770;BME280;59605;52.122;5.420;2022-10-17T07:40:39;101777.97;;;20.51;64.01
71770;BME280;59605;52.122;5.420;2022-10-17T07:43:06;101775.34;;;20.51;64.31
71770;BME280;59605;52.122;5.420;2022-10-17T07:45:32;101768.34;;;20.51;64.57
71770;BME280;59605;52.122;5.420;2022-10-17T07:47:58;101780.47;;;20.52;63.98
71770;BME280;59605;52.122;5.420;2022-10-17T07:50:25;101802.19;;;20.53;64.18
71770;BME280;59605;52.122;5.420;2022-10-17T07:52:51;101798.66;;;20.54;64.39
71770;BME280;59605;52.122;5.420;2022-10-17T07:55:17;101811.72;;;20.54;64.38
71770;BME280;59605;52.122;5.420;2022-10-17T07:57:44;101837.00;;;20.53;63.98
71770;BME280;59605;52.122;5.420;2022-10-17T08:00:11;101872.63;;;20.54;64.29
71770;BME280;59605;52.122;5.420;2022-10-17T08:02:37;101889.25;;;20.53;64.36
71770;BME280;59605;52.122;5.420;2022-10-17T08:05:04;101910.97;;;20.54;64.23
71770;BME280;59605;52.122;5.420;2022-10-17T08:07:30;101920.59;;;20.53;64.50
71770;BME280;59605;52.122;5.420;2022-10-17T08:09:56;101924.13;;;20.52;64.86
71770;BME280;59605;52.122;5.420;2022-10-17T08:12:23;101925.81;;;20.53;64.25
71770;BME280;59605;52.122;5.420;2022-10-17T08:14:51;101925.91;;;20.52;64.63
71770;BME280;59605;52.122;5.420;2022-10-17T08:17:17;101922.44;;;20.51;64.44
71770;BME280;59605;52.122;5.420;2022-10-17T08:19:43;101935.50;;;20.51;64.42
71770;BME280;59605;52.122;5.420;2022-10-17T08:22:09;101926.00;;;20.50;64.31
71770;BME280;59605;52.122;5.420;2022-10-17T08:24:36;101911.16;;;20.51;64.28
71770;BME280;59605;52.122;5.420;2022-10-17T08:27:03;101902.50;;;20.50;64.61
71770;BME280;59605;52.122;5.420;2022-10-17T08:29:37;101900.72;;;20.51;64.83
71770;BME280;59605;52.122;5.420;2022-10-17T08:32:04;101903.41;;;20.49;64.48
71770;BME280;59605;52.122;5.420;2022-10-17T08:34:34;101913.75;;;20.51;64.41
71770;BME280;59605;52.122;5.420;2022-10-17T08:37:00;101926.00;;;20.50;65.00
71770;BME280;59605;52.122;5.420;2022-10-17T08:39:26;101919.09;;;20.49;64.94
71770;BME280;59605;52.122;5.420;2022-10-17T08:44:40;101953.03;;;20.49;64.57
71770;BME280;59605;52.122;5.420;2022-10-17T08:47:14;101974.75;;;20.50;64.91
71770;BME280;59605;52.122;5.420;2022-10-17T08:49:48;101988.69;;;20.50;64.45
71770;BME280;59605;52.122;5.420;2022-10-17T08:52:26;101996.50;;;20.50;64.87
71770;BME280;59605;52.122;5.420;2022-10-17T08:54:54;101997.44;;;20.49;65.28
71770;BME280;59605;52.122;5.420;2022-10-17T08:57:21;102001.84;;;20.49;65.03
71770;BME280;59605;52.122;5.420;2022-10-17T08:59:52;101980.06;;;20.48;64.90
71770;BME280;59605;52.122;5.420;2022-10-17T09:05:27;101945.19;;;20.49;65.00
71770;BME280;59605;52.122;5.420;2022-10-17T09:08:41;101940.91;;;20.48;64.99
71770;BME280;59605;52.122;5.420;2022-10-17T09:11:11;101919.09;;;20.49;64.83
71770;BME280;59605;52.122;5.420;2022-10-17T09:16:18;101893.91;;;20.48;65.09
71770;BME280;59605;52.122;5.420;2022-10-17T09:18:56;101904.34;;;20.48;65.20
71770;BME280;59605;52.122;5.420;2022-10-17T09:21:43;101902.59;;;20.49;65.09
71770;BME280;59605;52.122;5.420;2022-10-17T09:24:15;101911.25;;;20.49;65.30
71770;BME280;59605;52.122;5.420;2022-10-17T09:26:44;101916.47;;;20.49;65.08
71770;BME280;59605;52.122;5.420;2022-10-17T09:29:17;101917.41;;;20.48;65.21
71770;BME280;59605;52.122;5.420;2022-10-17T09:31:53;101948.75;;;20.48;65.17
71770;BME280;59605;52.122;5.420;2022-10-17T09:34:24;101960.88;;;20.49;65.43
71770;BME280;59605;52.122;5.420;2022-10-17T09:36:52;101965.28;;;20.49;65.03
71770;BME280;59605;52.122;5.420;2022-10-17T09:39:22;101993.13;;;20.48;65.25
71770;BME280;59605;52.122;5.420;2022-10-17T09:41:55;101987.09;;;20.48;65.25
71770;BME280;59605;52.122;5.420;2022-10-17T09:44:36;101954.91;;;20.47;65.42
71770;BME280;59605;52.122;5.420;2022-10-17T09:49:49;101920.00;;;20.48;65.51
71770;BME280;59605;52.122;5.420;2022-10-17T09:55:02;101926.19;;;20.47;65.41
71770;BME280;59605;52.122;5.420;2022-10-17T09:58:03;101936.63;;;20.47;65.00
71770;BME280;59605;52.122;5.420;2022-10-17T10:00:35;101931.41;;;20.47;65.33
71770;BME280;59605;52.122;5.420;2022-10-17T10:03:24;101931.41;;;20.47;65.29
71770;BME280;59605;52.122;5.420;2022-10-17T10:06:18;101951.34;;;20.48;64.99
71770;BME280;59605;52.122;5.420;2022-10-17T10:08:53;101983.66;;;20.47;65.36
71770;BME280;59605;52.122;5.420;2022-10-17T10:11:49;101974.94;;;20.47;65.45
71770;BME280;59605;52.122;5.420;2022-10-17T10:17:00;101993.22;;;20.47;65.42
71770;BME280;59605;52.122;5.420;2022-10-17T10:19:36;101993.22;;;20.47;65.28
71770;BME280;59605;52.122;5.420;2022-10-17T10:22:17;102009.75;;;20.47;65.34
71770;BME280;59605;52.122;5.420;2022-10-17T10:24:44;102020.22;;;20.47;65.57
71770;BME280;59605;52.122;5.420;2022-10-17T10:27:13;102035.88;;;20.47;65.56
71770;BME280;59605;52.122;5.420;2022-10-17T10:29:42;102043.72;;;20.47;65.27
71770;BME280;59605;52.122;5.420;2022-10-17T10:32:25;102046.31;;;20.47;65.26
71770;BME280;59605;52.122;5.420;2022-10-17T10:37:39;102056.00;;;20.45;65.35
71770;BME280;59605;52.122;5.420;2022-10-17T10:40:22;102061.22;;;20.45;65.37
71770;BME280;59605;52.122;5.420;2022-10-17T10:42:53;102062.91;;;20.46;65.40
71770;BME280;59605;52.122;5.420;2022-10-17T10:45:38;102058.59;;;20.45;65.60
71770;BME280;59605;52.122;5.420;2022-10-17T10:50:44;102060.38;;;20.45;65.20
71770;BME280;59605;52.122;5.420;2022-10-17T10:53:36;102056.91;;;20.44;65.56
71770;BME280;59605;52.122;5.420;2022-10-17T10:56:17;102056.00;;;20.45;65.43
71770;BME280;59605;52.122;5.420;2022-10-17T11:01:24;102073.44;;;20.45;65.33
71770;BME280;59605;52.122;5.420;2022-10-17T11:04:09;102074.28;;;20.45;65.25
71770;BME280;59605;52.122;5.420;2022-10-17T11:06:42;102082.22;;;20.44;65.08
71770;BME280;59605;52.122;5.420;2022-10-17T11:12:42;102089.94;;;20.45;65.46
71770;BME280;59605;52.122;5.420;2022-10-17T11:15:29;102091.72;;;20.45;65.16
71770;BME280;59605;52.122;5.420;2022-10-17T11:18:10;102087.34;;;20.45;65.58
71770;BME280;59605;52.122;5.420;2022-10-17T11:20:52;102090.78;;;20.46;65.13
71770;BME280;59605;52.122;5.420;2022-10-17T11:23:50;102104.69;;;20.46;65.07
71770;BME280;59605;52.122;5.420;2022-10-17T11:26:22;102102.19;;;20.45;65.43
71770;BME280;59605;52.122;5.420;2022-10-17T11:28:53;102110.84;;;20.45;65.45
71770;BME280;59605;52.122;5.420;2022-10-17T11:31:21;102109.16;;;20.44;65.39
71770;BME280;59605;52.122;5.420;2022-10-17T11:33:56;102112.63;;;20.45;65.17
71770;BME280;59605;52.122;5.420;2022-10-17T11:36:28;102122.22;;;20.44;65.11
71770;BME280;59605;52.122;5.420;2022-10-17T11:39:03;102128.38;;;20.43;65.49
71770;BME280;59605;52.122;5.420;2022-10-17T11:41:39;102131.91;;;20.42;65.57
71770;BME280;59605;52.122;5.420;2022-10-17T11:44:30;102133.78;;;20.40;65.64
71770;BME280;59605;52.122;5.420;2022-10-17T11:47:03;102132.84;;;20.41;65.52
71770;BME280;59605;52.122;5.420;2022-10-17T11:49:35;102137.97;;;20.43;65.50
71770;BME280;59605;52.122;5.420;2022-10-17T12:03:38;102138.75;;;20.45;65.72
71770;BME280;59605;52.122;5.420;2022-10-17T12:06:30;102136.97;;;20.45;65.91
71770;BME280;59605;52.122;5.420;2022-10-17T12:09:08;102134.34;;;20.45;66.08
71770;BME280;59605;52.122;5.420;2022-10-17T12:14:45;102134.25;;;20.47;66.04
71770;BME280;59605;52.122;5.420;2022-10-17T12:17:30;102131.63;;;20.47;65.65
71770;BME280;59605;52.122;5.420;2022-10-17T12:22:52;102134.25;;;20.47;66.19
71770;BME280;59605;52.122;5.420;2022-10-17T12:25:28;102142.09;;;20.47;66.11
71770;BME280;59605;52.122;5.420;2022-10-17T12:30:32;102149.84;;;20.48;66.75
71770;BME280;59605;52.122;5.420;2022-10-17T12:54:50;102167.38;;;20.46;66.53
71770;BME280;59605;52.122;5.420;2022-10-17T12:57:50;102170.00;;;20.46;66.11
71770;BME280;59605;52.122;5.420;2022-10-17T13:03:17;102170.91;;;20.45;66.43
71770;BME280;59605;52.122;5.420;2022-10-17T13:05:53;102178.75;;;20.45;66.03
71770;BME280;59605;52.122;5.420;2022-10-17T13:08:27;102177.91;;;20.45;66.47
71770;BME280;59605;52.122;5.420;2022-10-17T13:10:55;102179.66;;;20.44;66.32
71770;BME280;59605;52.122;5.420;2022-10-17T13:13:37;102190.97;;;20.45;66.01
71770;BME280;59605;52.122;5.420;2022-10-17T13:16:06;102184.06;;;20.44;66.35
71770;BME280;59605;52.122;5.420;2022-10-17T13:18:33;102187.50;;;20.44;66.49
71770;BME280;59605;52.122;5.420;2022-10-17T13:21:14;102204.94;;;20.44;66.42
71770;BME280;59605;52.122;5.420;2022-10-17T13:23:41;102209.34;;;20.43;66.83
71770;BME280;59605;52.122;5.420;2022-10-17T13:26:26;102207.56;;;20.44;66.38
71770;BME280;59605;52.122;5.420;2022-10-17T13:29:09;102211.94;;;20.43;66.32
71770;BME280;59605;52.122;5.420;2022-10-17T13:31:38;102212.78;;;20.44;66.14
71770;BME280;59605;52.122;5.420;2022-10-17T13:34:17;102221.53;;;20.43;66.56
71770;BME280;59605;52.122;5.420;2022-10-17T13:36:50;102230.22;;;20.43;65.97
71770;BME280;59605;52.122;5.420;2022-10-17T13:39:21;102241.50;;;20.44;66.16
71770;BME280;59605;52.122;5.420;2022-10-17T13:42:22;102235.47;;;20.43;66.35
71770;BME280;59605;52.122;5.420;2022-10-17T13:44:49;102244.94;;;20.44;66.64
71770;BME280;59605;52.122;5.420;2022-10-17T13:47:25;102241.59;;;20.42;66.47
71770;BME280;59605;52.122;5.420;2022-10-17T13:49:52;102251.13;;;20.43;66.52
71770;BME280;59605;52.122;5.420;2022-10-17T13:52:24;102260.63;;;20.44;66.40
71770;BME280;59605;52.122;5.420;2022-10-17T13:54:53;102265.84;;;20.44;66.33
71770;BME280;59605;52.122;5.420;2022-10-17T13:57:24;102269.41;;;20.43;66.20
71770;BME280;59605;52.122;5.420;2022-10-17T13:59:56;102272.00;;;20.43;66.27
71770;BME280;59605;52.122;5.420;2022-10-17T14:02:25;102272.00;;;20.43;66.09
71770;BME280;59605;52.122;5.420;2022-10-17T14:05:21;102272.94;;;20.42;65.98
71770;BME280;59605;52.122;5.420;2022-10-17T14:10:36;102269.41;;;20.43;66.20
71770;BME280;59605;52.122;5.420;2022-10-17T14:13:04;102270.31;;;20.42;66.28
71770;BME280;59605;52.122;5.420;2022-10-17T14:15:35;102261.56;;;20.43;66.39
71770;BME280;59605;52.122;5.420;2022-10-17T14:18:05;102267.72;;;20.42;66.43
71770;BME280;59605;52.122;5.420;2022-10-17T14:20:34;102260.72;;;20.43;66.44
71770;BME280;59605;52.122;5.420;2022-10-17T14:23:40;102262.50;;;20.42;66.34
71770;BME280;59605;52.122;5.420;2022-10-17T14:26:16;102259.88;;;20.42;66.48
71770;BME280;59605;52.122;5.420;2022-10-17T14:28:45;102263.31;;;20.43;66.49
71770;BME280;59605;52.122;5.420;2022-10-17T14:31:22;102258.09;;;20.43;66.26
71770;BME280;59605;52.122;5.420;2022-10-17T14:33:52;102255.47;;;20.43;66.35
71770;BME280;59605;52.122;5.420;2022-10-17T14:36:20;102252.78;;;20.44;66.58
71770;BME280;59605;52.122;5.420;2022-10-17T14:38:54;102258.00;;;20.44;66.64
71770;BME280;59605;52.122;5.420;2022-10-17T14:41:24;102273.69;;;20.44;66.31
71770;BME280;59605;52.122;5.420;2022-10-17T14:44:29;102266.72;;;20.45;66.43
71770;BME280;59605;52.122;5.420;2022-10-17T14:46:59;102271.94;;;20.45;66.15
71770;BME280;59605;52.122;5.420;2022-10-17T14:49:37;102273.59;;;20.46;66.44
71770;BME280;59605;52.122;5.420;2022-10-17T14:54:48;102276.28;;;20.44;66.20
71770;BME280;59605;52.122;5.420;2022-10-17T14:57:27;102277.97;;;20.45;66.43